sensor_id;sensor_type;location;lat;lon;timestamp;pressure;altitude;pressure_sealevel;temperature
44429;BMP180;30134;47.866;-4.222;2024-01-06T00:00:41;100922.00;;;20.40
44429;BMP180;30134;47.866;-4.222;2024-01-06T00:03:08;100914.00;;;20.40
44429;BMP180;30134;47.866;-4.222;2024-01-06T00:05:34;100917.00;;;20.40
44429;BMP180;30134;47.866;-4.222;2024-01-06T00:08:00;100916.00;;;20.40
44429;BMP180;30134;47.866;-4.222;2024-01-06T00:10:26;100921.00;;;20.40
44429;BMP180;30134;47.866;-4.222;2024-01-06T00:12:52;100921.00;;;20.40
44429;BMP180;30134;47.866;-4.222;2024-01-06T00:15:20;100920.00;;;20.40
44429;BMP180;30134;47.866;-4.222;2024-01-06T00:17:46;100934.00;;;20.40
44429;BMP180;30134;47.866;-4.222;2024-01-06T00:20:13;100929.00;;;20.40
44429;BMP180;30134;47.866;-4.222;2024-01-06T00:22:39;100939.00;;;20.40
44429;BMP180;30134;47.866;-4.222;2024-01-06T00:25:05;100933.00;;;20.40
44429;BMP180;30134;47.866;-4.222;2024-01-06T00:27:32;100926.00;;;20.40
44429;BMP180;30134;47.866;-4.222;2024-01-06T00:29:58;100933.00;;;20.40
44429;BMP180;30134;47.866;-4.222;2024-01-06T00:32:24;100937.00;;;20.40
44429;BMP180;30134;47.866;-4.222;2024-01-06T00:34:52;100937.00;;;20.40
44429;BMP180;30134;47.866;-4.222;2024-01-06T00:37:18;100937.00;;;20.40
44429;BMP180;30134;47.866;-4.222;2024-01-06T00:39:44;100936.00;;;20.30
44429;BMP180;30134;47.866;-4.222;2024-01-06T00:42:10;100936.00;;;20.30
44429;BMP180;30134;47.866;-4.222;2024-01-06T00:44:37;100940.00;;;20.40
44429;BMP180;30134;47.866;-4.222;2024-01-06T00:47:04;100938.00;;;20.40
44429;BMP180;30134;47.866;-4.222;2024-01-06T00:49:30;100939.00;;;20.30
44429;BMP180;30134;47.866;-4.222;2024-01-06T00:51:56;100941.00;;;20.40
44429;BMP180;30134;47.866;-4.222;2024-01-06T00:54:22;100947.00;;;20.40
44429;BMP180;30134;47.866;-4.222;2024-01-06T00:56:48;100950.00;;;20.40
44429;BMP180;30134;47.866;-4.222;2024-01-06T00:59:14;100957.00;;;20.40
44429;BMP180;30134;47.866;-4.222;2024-01-06T01:01:40;100957.00;;;20.40
44429;BMP180;30134;47.866;-4.222;2024-01-06T01:04:06;100964.00;;;20.40
44429;BMP180;30134;47.866;-4.222;2024-01-06T01:06:32;100959.00;;;20.40
44429;BMP180;30134;47.866;-4.222;2024-01-06T01:08:58;100960.00;;;20.40
44429;BMP180;30134;47.866;-4.222;2024-01-06T01:11:24;100973.00;;;20.40
44429;BMP180;30134;47.866;-4.222;2024-01-06T01:13:51;100975.00;;;20.40
44429;BMP180;30134;47.866;-4.222;2024-01-06T01:16:17;100969.00;;;20.30
44429;BMP180;30134;47.866;-4.222;2024-01-06T01:18:43;100965.00;;;20.40
44429;BMP180;30134;47.866;-4.222;2024-01-06T01:21:09;100966.00;;;20.40
44429;BMP180;30134;47.866;-4.222;2024-01-06T01:23:35;100959.00;;;20.40
44429;BMP180;30134;47.866;-4.222;2024-01-06T01:26:01;100966.00;;;20.30
44429;BMP180;30134;47.866;-4.222;2024-01-06T01:28:27;100962.00;;;20.30
44429;BMP180;30134;47.866;-4.222;2024-01-06T01:30:53;100958.00;;;20.40
44429;BMP180;30134;47.866;-4.222;2024-01-06T01:33:20;100960.00;;;20.40
44429;BMP180;30134;47.866;-4.222;2024-01-06T01:35:46;100956.00;;;20.40
44429;BMP180;30134;47.866;-4.222;2024-01-06T01:38:12;100960.00;;;20.40
44429;BMP180;30134;47.866;-4.222;2024-01-06T01:40:38;100961.00;;;20.40
44429;BMP180;30134;47.866;-4.222;2024-01-06T01:43:04;100954.00;;;20.40
44429;BMP180;30134;47.866;-4.222;2024-01-06T01:45:30;100962.00;;;20.40
44429;BMP180;30134;47.866;-4.222;2024-01-06T01:47:56;100962.00;;;20.40
44429;BMP180;30134;47.866;-4.222;2024-01-06T01:50:22;100970.00;;;20.30
44429;BMP180;30134;47.866;-4.222;2024-01-06T01:52:49;100979.00;;;20.30
44429;BMP180;30134;47.866;-4.222;2024-01-06T01:55:15;100966.00;;;20.30
44429;BMP180;30134;47.866;-4.222;2024-01-06T01:57:41;100972.00;;;20.20
44429;BMP180;30134;47.866;-4.222;2024-01-06T02:00:08;100976.00;;;20.10
44429;BMP180;30134;47.866;-4.222;2024-01-06T02:02:35;100983.00;;;20.20
44429;BMP180;30134;47.866;-4.222;2024-01-06T02:05:01;100981.00;;;20.20
44429;BMP180;30134;47.866;-4.222;2024-01-06T02:07:27;100991.00;;;20.20
44429;BMP180;30134;47.866;-4.222;2024-01-06T02:09:53;100986.00;;;20.10
44429;BMP180;30134;47.866;-4.222;2024-01-06T02:12:19;100995.00;;;20.20
44429;BMP180;30134;47.866;-4.222;2024-01-06T02:14:45;100996.00;;;20.10
44429;BMP180;30134;47.866;-4.222;2024-01-06T02:17:11;101006.00;;;20.10
44429;BMP180;30134;47.866;-4.222;2024-01-06T02:19:37;101004.00;;;20.20
44429;BMP180;30134;47.866;-4.222;2024-01-06T02:22:03;100999.00;;;20.10
44429;BMP180;30134;47.866;-4.222;2024-01-06T02:24:29;101001.00;;;20.20
44429;BMP180;30134;47.866;-4.222;2024-01-06T02:26:55;101001.00;;;20.10
44429;BMP180;30134;47.866;-4.222;2024-01-06T02:29:21;101009.00;;;20.20
44429;BMP180;30134;47.866;-4.222;2024-01-06T02:31:47;101019.00;;;20.10
44429;BMP180;30134;47.866;-4.222;2024-01-06T02:34:13;101017.00;;;20.00
44429;BMP180;30134;47.866;-4.222;2024-01-06T02:36:39;101020.00;;;20.10
44429;BMP180;30134;47.866;-4.222;2024-01-06T02:39:05;101017.00;;;20.10
44429;BMP180;30134;47.866;-4.222;2024-01-06T02:41:39;101024.00;;;20.10
44429;BMP180;30134;47.866;-4.222;2024-01-06T02:44:08;101031.00;;;20.10
44429;BMP180;30134;47.866;-4.222;2024-01-06T02:46:34;101026.00;;;20.10
44429;BMP180;30134;47.866;-4.222;2024-01-06T02:49:00;101031.00;;;20.10
44429;BMP180;30134;47.866;-4.222;2024-01-06T02:51:26;101031.00;;;20.10
44429;BMP180;30134;47.866;-4.222;2024-01-06T02:53:56;101030.00;;;20.10
44429;BMP180;30134;47.866;-4.222;2024-01-06T02:56:22;101024.00;;;20.10
44429;BMP180;30134;47.866;-4.222;2024-01-06T02:58:55;101036.00;;;20.00
44429;BMP180;30134;47.866;-4.222;2024-01-06T03:01:21;101039.00;;;20.10
44429;BMP180;30134;47.866;-4.222;2024-01-06T03:03:47;101031.00;;;20.10
44429;BMP180;30134;47.866;-4.222;2024-01-06T03:06:13;101035.00;;;20.00
44429;BMP180;30134;47.866;-4.222;2024-01-06T03:08:39;101041.00;;;20.10
44429;BMP180;30134;47.866;-4.222;2024-01-06T03:11:05;101036.00;;;20.00
44429;BMP180;30134;47.866;-4.222;2024-01-06T03:13:32;101045.00;;;20.10
44429;BMP180;30134;47.866;-4.222;2024-01-06T03:15:57;101050.00;;;20.00
44429;BMP180;30134;47.866;-4.222;2024-01-06T03:18:27;101049.00;;;20.00
44429;BMP180;30134;47.866;-4.222;2024-01-06T03:20:53;101053.00;;;20.10
44429;BMP180;30134;47.866;-4.222;2024-01-06T03:23:19;101059.00;;;20.00
44429;BMP180;30134;47.866;-4.222;2024-01-06T03:25:48;101058.00;;;20.00
44429;BMP180;30134;47.866;-4.222;2024-01-06T03:28:15;101064.00;;;20.10
44429;BMP180;30134;47.866;-4.222;2024-01-06T03:30:41;101070.00;;;20.00
44429;BMP180;30134;47.866;-4.222;2024-01-06T03:33:07;101067.00;;;20.10
44429;BMP180;30134;47.866;-4.222;2024-01-06T03:35:33;101062.00;;;20.00
44429;BMP180;30134;47.866;-4.222;2024-01-06T03:37:59;101073.00;;;20.10
44429;BMP180;30134;47.866;-4.222;2024-01-06T03:40:25;101065.00;;;20.00
44429;BMP180;30134;47.866;-4.222;2024-01-06T03:42:51;101072.00;;;20.00
44429;BMP180;30134;47.866;-4.222;2024-01-06T03:45:19;101077.00;;;20.00
44429;BMP180;30134;47.866;-4.222;2024-01-06T03:47:45;101075.00;;;20.00
44429;BMP180;30134;47.866;-4.222;2024-01-06T03:50:12;101077.00;;;20.00
44429;BMP180;30134;47.866;-4.222;2024-01-06T03:52:38;101091.00;;;20.00
44429;BMP180;30134;47.866;-4.222;2024-01-06T03:55:05;101082.00;;;20.00
44429;BMP180;30134;47.866;-4.222;2024-01-06T03:57:31;101085.00;;;19.90
44429;BMP180;30134;47.866;-4.222;2024-01-06T03:59:57;101084.00;;;19.90
44429;BMP180;30134;47.866;-4.222;2024-01-06T04:02:23;101082.00;;;19.90
44429;BMP180;30134;47.866;-4.222;2024-01-06T04:04:50;101080.00;;;19.90
44429;BMP180;30134;47.866;-4.222;2024-01-06T04:07:16;101076.00;;;20.00
44429;BMP180;30134;47.866;-4.222;2024-01-06T04:09:43;101085.00;;;20.00
44429;BMP180;30134;47.866;-4.222;2024-01-06T04:12:09;101091.00;;;20.00
44429;BMP180;30134;47.866;-4.222;2024-01-06T04:14:38;101091.00;;;20.00
44429;BMP180;30134;47.866;-4.222;2024-01-06T04:17:04;101100.00;;;19.90
44429;BMP180;30134;47.866;-4.222;2024-01-06T04:19:30;101110.00;;;20.00
44429;BMP180;30134;47.866;-4.222;2024-01-06T04:21:56;101112.00;;;20.00
44429;BMP180;30134;47.866;-4.222;2024-01-06T04:24:23;101111.00;;;19.90
44429;BMP180;30134;47.866;-4.222;2024-01-06T04:26:50;101101.00;;;19.90
44429;BMP180;30134;47.866;-4.222;2024-01-06T04:29:15;101101.00;;;19.90
44429;BMP180;30134;47.866;-4.222;2024-01-06T04:31:42;101115.00;;;19.90
44429;BMP180;30134;47.866;-4.222;2024-01-06T04:34:08;101103.00;;;19.90
44429;BMP180;30134;47.866;-4.222;2024-01-06T04:36:34;101113.00;;;19.90
44429;BMP180;30134;47.866;-4.222;2024-01-06T04:39:00;101113.00;;;19.90
44429;BMP180;30134;47.866;-4.222;2024-01-06T04:41:26;101121.00;;;19.90
44429;BMP180;30134;47.866;-4.222;2024-01-06T04:43:55;101117.00;;;19.90
44429;BMP180;30134;47.866;-4.222;2024-01-06T04:46:21;101117.00;;;19.90
44429;BMP180;30134;47.866;-4.222;2024-01-06T04:48:47;101125.00;;;19.90
44429;BMP180;30134;47.866;-4.222;2024-01-06T04:51:13;101124.00;;;19.90
44429;BMP180;30134;47.866;-4.222;2024-01-06T04:53:40;101128.00;;;19.90
44429;BMP180;30134;47.866;-4.222;2024-01-06T04:56:06;101132.00;;;19.90
44429;BMP180;30134;47.866;-4.222;2024-01-06T04:58:32;101140.00;;;19.90
44429;BMP180;30134;47.866;-4.222;2024-01-06T05:00:58;101143.00;;;19.90
44429;BMP180;30134;47.866;-4.222;2024-01-06T05:03:24;101143.00;;;19.90
44429;BMP180;30134;47.866;-4.222;2024-01-06T05:05:50;101149.00;;;19.90
44429;BMP180;30134;47.866;-4.222;2024-01-06T05:08:16;101151.00;;;19.90
44429;BMP180;30134;47.866;-4.222;2024-01-06T05:10:44;101154.00;;;19.90
44429;BMP180;30134;47.866;-4.222;2024-01-06T05:13:12;101156.00;;;19.80
44429;BMP180;30134;47.866;-4.222;2024-01-06T05:15:38;101160.00;;;19.90
44429;BMP180;30134;47.866;-4.222;2024-01-06T05:18:05;101166.00;;;19.80
44429;BMP180;30134;47.866;-4.222;2024-01-06T05:20:31;101153.00;;;19.80
44429;BMP180;30134;47.866;-4.222;2024-01-06T05:22:57;101164.00;;;19.90
44429;BMP180;30134;47.866;-4.222;2024-01-06T05:25:23;101164.00;;;19.90
44429;BMP180;30134;47.866;-4.222;2024-01-06T05:27:49;101165.00;;;19.80
44429;BMP180;30134;47.866;-4.222;2024-01-06T05:30:15;101164.00;;;19.90
44429;BMP180;30134;47.866;-4.222;2024-01-06T05:32:41;101167.00;;;19.90
44429;BMP180;30134;47.866;-4.222;2024-01-06T05:35:07;101172.00;;;19.90
44429;BMP180;30134;47.866;-4.222;2024-01-06T05:37:33;101178.00;;;19.80
44429;BMP180;30134;47.866;-4.222;2024-01-06T05:39:59;101175.00;;;19.80
44429;BMP180;30134;47.866;-4.222;2024-01-06T05:42:28;101178.00;;;19.80
44429;BMP180;30134;47.866;-4.222;2024-01-06T05:44:57;101181.00;;;19.80
44429;BMP180;30134;47.866;-4.222;2024-01-06T05:47:23;101181.00;;;19.80
44429;BMP180;30134;47.866;-4.222;2024-01-06T05:49:49;101178.00;;;19.80
44429;BMP180;30134;47.866;-4.222;2024-01-06T05:52:15;101182.00;;;19.90
44429;BMP180;30134;47.866;-4.222;2024-01-06T05:54:42;101180.00;;;19.90
44429;BMP180;30134;47.866;-4.222;2024-01-06T05:57:08;101184.00;;;19.80
44429;BMP180;30134;47.866;-4.222;2024-01-06T05:59:34;101197.00;;;19.90
44429;BMP180;30134;47.866;-4.222;2024-01-06T06:02:01;101205.00;;;19.80
44429;BMP180;30134;47.866;-4.222;2024-01-06T06:04:27;101207.00;;;19.90
44429;BMP180;30134;47.866;-4.222;2024-01-06T06:06:53;101211.00;;;19.80
44429;BMP180;30134;47.866;-4.222;2024-01-06T06:09:19;101217.00;;;19.80
44429;BMP180;30134;47.866;-4.222;2024-01-06T06:11:46;101213.00;;;19.80
44429;BMP180;30134;47.866;-4.222;2024-01-06T06:14:12;101211.00;;;19.80
44429;BMP180;30134;47.866;-4.222;2024-01-06T06:16:38;101198.00;;;19.80
44429;BMP180;30134;47.866;-4.222;2024-01-06T06:19:04;101211.00;;;19.70
44429;BMP180;30134;47.866;-4.222;2024-01-06T06:21:30;101208.00;;;19.80
44429;BMP180;30134;47.866;-4.222;2024-01-06T06:23:56;101215.00;;;19.80
44429;BMP180;30134;47.866;-4.222;2024-01-06T06:26:22;101205.00;;;19.80
44429;BMP180;30134;47.866;-4.222;2024-01-06T06:28:48;101209.00;;;19.80
44429;BMP180;30134;47.866;-4.222;2024-01-06T06:31:14;101208.00;;;19.80
44429;BMP180;30134;47.866;-4.222;2024-01-06T06:33:40;101214.00;;;19.70
44429;BMP180;30134;47.866;-4.222;2024-01-06T06:36:06;101225.00;;;19.70
44429;BMP180;30134;47.866;-4.222;2024-01-06T06:38:33;101226.00;;;19.80
44429;BMP180;30134;47.866;-4.222;2024-01-06T06:40:59;101229.00;;;19.80
44429;BMP180;30134;47.866;-4.222;2024-01-06T06:43:27;101224.00;;;19.70
44429;BMP180;30134;47.866;-4.222;2024-01-06T06:45:53;101236.00;;;19.70
44429;BMP180;30134;47.866;-4.222;2024-01-06T06:48:24;101236.00;;;19.70
44429;BMP180;30134;47.866;-4.222;2024-01-06T06:50:50;101238.00;;;19.70
44429;BMP180;30134;47.866;-4.222;2024-01-06T06:53:16;101244.00;;;19.70
44429;BMP180;30134;47.866;-4.222;2024-01-06T06:55:42;101236.00;;;19.70
44429;BMP180;30134;47.866;-4.222;2024-01-06T06:58:08;101245.00;;;19.60
44429;BMP180;30134;47.866;-4.222;2024-01-06T07:00:34;101249.00;;;19.70
44429;BMP180;30134;47.866;-4.222;2024-01-06T07:03:01;101254.00;;;19.80
44429;BMP180;30134;47.866;-4.222;2024-01-06T07:05:27;101254.00;;;19.70
44429;BMP180;30134;47.866;-4.222;2024-01-06T07:07:53;101252.00;;;19.70
44429;BMP180;30134;47.866;-4.222;2024-01-06T07:10:19;101249.00;;;19.60
44429;BMP180;30134;47.866;-4.222;2024-01-06T07:12:45;101252.00;;;19.80
44429;BMP180;30134;47.866;-4.222;2024-01-06T07:15:11;101258.00;;;19.70
44429;BMP180;30134;47.866;-4.222;2024-01-06T07:17:37;101264.00;;;19.70
44429;BMP180;30134;47.866;-4.222;2024-01-06T07:20:06;101261.00;;;19.70
44429;BMP180;30134;47.866;-4.222;2024-01-06T07:22:33;101274.00;;;19.70
44429;BMP180;30134;47.866;-4.222;2024-01-06T07:25:02;101276.00;;;19.70
44429;BMP180;30134;47.866;-4.222;2024-01-06T07:27:33;101281.00;;;19.70
44429;BMP180;30134;47.866;-4.222;2024-01-06T07:29:59;101290.00;;;19.60
44429;BMP180;30134;47.866;-4.222;2024-01-06T07:32:25;101294.00;;;19.70
44429;BMP180;30134;47.866;-4.222;2024-01-06T07:34:51;101294.00;;;19.70
44429;BMP180;30134;47.866;-4.222;2024-01-06T07:37:20;101297.00;;;19.60
44429;BMP180;30134;47.866;-4.222;2024-01-06T07:39:46;101303.00;;;19.70
44429;BMP180;30134;47.866;-4.222;2024-01-06T07:42:12;101306.00;;;19.70
44429;BMP180;30134;47.866;-4.222;2024-01-06T07:44:38;101317.00;;;19.70
44429;BMP180;30134;47.866;-4.222;2024-01-06T07:47:04;101317.00;;;19.60
44429;BMP180;30134;47.866;-4.222;2024-01-06T07:49:31;101326.00;;;19.70
44429;BMP180;30134;47.866;-4.222;2024-01-06T07:51:57;101329.00;;;19.70
44429;BMP180;30134;47.866;-4.222;2024-01-06T07:54:23;101338.00;;;19.70
44429;BMP180;30134;47.866;-4.222;2024-01-06T07:56:49;101339.00;;;19.70
44429;BMP180;30134;47.866;-4.222;2024-01-06T07:59:15;101339.00;;;19.70
44429;BMP180;30134;47.866;-4.222;2024-01-06T08:01:41;101345.00;;;19.70
44429;BMP180;30134;47.866;-4.222;2024-01-06T08:04:08;101350.00;;;19.70
44429;BMP180;30134;47.866;-4.222;2024-01-06T08:06:35;101352.00;;;19.70
44429;BMP180;30134;47.866;-4.222;2024-01-06T08:09:01;101360.00;;;19.70
44429;BMP180;30134;47.866;-4.222;2024-01-06T08:11:29;101365.00;;;19.70
44429;BMP180;30134;47.866;-4.222;2024-01-06T08:13:55;101364.00;;;19.70
44429;BMP180;30134;47.866;-4.222;2024-01-06T08:16:21;101371.00;;;19.70
44429;BMP180;30134;47.866;-4.222;2024-01-06T08:18:47;101370.00;;;19.70
44429;BMP180;30134;47.866;-4.222;2024-01-06T08:21:13;101365.00;;;19.70
44429;BMP180;30134;47.866;-4.222;2024-01-06T08:23:41;101366.00;;;19.70
44429;BMP180;30134;47.866;-4.222;2024-01-06T08:26:07;101371.00;;;19.70
44429;BMP180;30134;47.866;-4.222;2024-01-06T08:28:33;101376.00;;;19.60
44429;BMP180;30134;47.866;-4.222;2024-01-06T08:30:59;101378.00;;;19.70
44429;BMP180;30134;47.866;-4.222;2024-01-06T08:33:26;101377.00;;;19.70
44429;BMP180;30134;47.866;-4.222;2024-01-06T08:35:51;101379.00;;;19.70
44429;BMP180;30134;47.866;-4.222;2024-01-06T08:38:17;101377.00;;;19.60
44429;BMP180;30134;47.866;-4.222;2024-01-06T08:40:47;101387.00;;;19.60
44429;BMP180;30134;47.866;-4.222;2024-01-06T08:43:13;101382.00;;;19.60
44429;BMP180;30134;47.866;-4.222;2024-01-06T08:45:40;101390.00;;;19.60
44429;BMP180;30134;47.866;-4.222;2024-01-06T08:48:06;101398.00;;;19.70
44429;BMP180;30134;47.866;-4.222;2024-01-06T08:50:32;101406.00;;;19.70
44429;BMP180;30134;47.866;-4.222;2024-01-06T08:52:58;101400.00;;;19.60
44429;BMP180;30134;47.866;-4.222;2024-01-06T08:55:24;101409.00;;;19.60
44429;BMP180;30134;47.866;-4.222;2024-01-06T08:57:50;101411.00;;;19.60
44429;BMP180;30134;47.866;-4.222;2024-01-06T09:00:17;101417.00;;;19.60
44429;BMP180;30134;47.866;-4.222;2024-01-06T09:02:43;101418.00;;;19.70
44429;BMP180;30134;47.866;-4.222;2024-01-06T09:05:09;101415.00;;;19.70
44429;BMP180;30134;47.866;-4.222;2024-01-06T09:07:35;101422.00;;;19.70
44429;BMP180;30134;47.866;-4.222;2024-01-06T09:10:01;101422.00;;;19.70
44429;BMP180;30134;47.866;-4.222;2024-01-06T09:12:27;101418.00;;;19.60
44429;BMP180;30134;47.866;-4.222;2024-01-06T09:14:53;101422.00;;;19.70
44429;BMP180;30134;47.866;-4.222;2024-01-06T09:17:19;101432.00;;;19.60
44429;BMP180;30134;47.866;-4.222;2024-01-06T09:19:45;101434.00;;;19.70
44429;BMP180;30134;47.866;-4.222;2024-01-06T09:22:10;101427.00;;;19.70
44429;BMP180;30134;47.866;-4.222;2024-01-06T09:24:36;101429.00;;;19.60
44429;BMP180;30134;47.866;-4.222;2024-01-06T09:27:02;101434.00;;;19.60
44429;BMP180;30134;47.866;-4.222;2024-01-06T09:29:29;101438.00;;;19.60
44429;BMP180;30134;47.866;-4.222;2024-01-06T09:31:55;101438.00;;;19.60
44429;BMP180;30134;47.866;-4.222;2024-01-06T09:34:21;101447.00;;;19.60
44429;BMP180;30134;47.866;-4.222;2024-01-06T09:36:47;101452.00;;;19.60
44429;BMP180;30134;47.866;-4.222;2024-01-06T09:39:12;101454.00;;;19.60
44429;BMP180;30134;47.866;-4.222;2024-01-06T09:41:38;101454.00;;;19.60
44429;BMP180;30134;47.866;-4.222;2024-01-06T09:44:05;101462.00;;;19.60
44429;BMP180;30134;47.866;-4.222;2024-01-06T09:46:31;101472.00;;;19.60
44429;BMP180;30134;47.866;-4.222;2024-01-06T09:48:58;101468.00;;;19.60
44429;BMP180;30134;47.866;-4.222;2024-01-06T09:51:25;101473.00;;;19.60
44429;BMP180;30134;47.866;-4.222;2024-01-06T09:56:21;101483.00;;;19.60
44429;BMP180;30134;47.866;-4.222;2024-01-06T09:58:48;101487.00;;;19.60
44429;BMP180;30134;47.866;-4.222;2024-01-06T10:01:14;101496.00;;;19.60
44429;BMP180;30134;47.866;-4.222;2024-01-06T10:03:41;101494.00;;;19.60
44429;BMP180;30134;47.866;-4.222;2024-01-06T10:06:07;101498.00;;;19.60
44429;BMP180;30134;47.866;-4.222;2024-01-06T10:08:35;101503.00;;;19.50
44429;BMP180;30134;47.866;-4.222;2024-01-06T10:11:02;101505.00;;;19.60
44429;BMP180;30134;47.866;-4.222;2024-01-06T10:13:28;101505.00;;;19.60
44429;BMP180;30134;47.866;-4.222;2024-01-06T10:15:55;101509.00;;;19.30
44429;BMP180;30134;47.866;-4.222;2024-01-06T10:18:21;101520.00;;;19.50
44429;BMP180;30134;47.866;-4.222;2024-01-06T10:20:47;101519.00;;;19.60
44429;BMP180;30134;47.866;-4.222;2024-01-06T10:23:13;101534.00;;;19.50
44429;BMP180;30134;47.866;-4.222;2024-01-06T10:25:39;101539.00;;;19.70
44429;BMP180;30134;47.866;-4.222;2024-01-06T10:28:11;101545.00;;;19.70
44429;BMP180;30134;47.866;-4.222;2024-01-06T10:30:39;101547.00;;;19.60
44429;BMP180;30134;47.866;-4.222;2024-01-06T10:33:11;101544.00;;;19.70
44429;BMP180;30134;47.866;-4.222;2024-01-06T10:35:39;101558.00;;;19.70
44429;BMP180;30134;47.866;-4.222;2024-01-06T10:38:07;101554.00;;;19.70
44429;BMP180;30134;47.866;-4.222;2024-01-06T10:40:33;101558.00;;;19.70
44429;BMP180;30134;47.866;-4.222;2024-01-06T10:43:00;101552.00;;;19.60
44429;BMP180;30134;47.866;-4.222;2024-01-06T10:45:28;101552.00;;;19.70
44429;BMP180;30134;47.866;-4.222;2024-01-06T10:47:55;101559.00;;;19.70
44429;BMP180;30134;47.866;-4.222;2024-01-06T10:50:23;101555.00;;;19.70
44429;BMP180;30134;47.866;-4.222;2024-01-06T10:52:51;101549.00;;;19.70
44429;BMP180;30134;47.866;-4.222;2024-01-06T10:55:19;101555.00;;;19.70
44429;BMP180;30134;47.866;-4.222;2024-01-06T10:57:46;101558.00;;;19.80
44429;BMP180;30134;47.866;-4.222;2024-01-06T11:00:13;101553.00;;;19.80
44429;BMP180;30134;47.866;-4.222;2024-01-06T11:02:40;101554.00;;;19.80
44429;BMP180;30134;47.866;-4.222;2024-01-06T11:05:08;101553.00;;;19.70
44429;BMP180;30134;47.866;-4.222;2024-01-06T11:56:07;101527.00;;;18.20
44429;BMP180;30134;47.866;-4.222;2024-01-06T11:58:33;101529.00;;;18.40
44429;BMP180;30134;47.866;-4.222;2024-01-06T12:01:00;101519.00;;;18.60
44429;BMP180;30134;47.866;-4.222;2024-01-06T12:03:26;101524.00;;;18.70
44429;BMP180;30134;47.866;-4.222;2024-01-06T12:06:02;101518.00;;;18.80
44429;BMP180;30134;47.866;-4.222;2024-01-06T12:08:48;101509.00;;;18.80
44429;BMP180;30134;47.866;-4.222;2024-01-06T12:11:34;101516.00;;;18.90
44429;BMP180;30134;47.866;-4.222;2024-01-06T12:14:20;101514.00;;;18.90
44429;BMP180;30134;47.866;-4.222;2024-01-06T12:17:06;101513.00;;;19.00
44429;BMP180;30134;47.866;-4.222;2024-01-06T12:19:52;101514.00;;;19.00
44429;BMP180;30134;47.866;-4.222;2024-01-06T12:22:38;101507.00;;;19.00
44429;BMP180;30134;47.866;-4.222;2024-01-06T12:25:26;101505.00;;;19.10
44429;BMP180;30134;47.866;-4.222;2024-01-06T12:28:15;101504.00;;;19.00
44429;BMP180;30134;47.866;-4.222;2024-01-06T12:31:04;101509.00;;;19.10
44429;BMP180;30134;47.866;-4.222;2024-01-06T12:33:54;101499.00;;;19.10
44429;BMP180;30134;47.866;-4.222;2024-01-06T12:36:41;101497.00;;;19.10
44429;BMP180;30134;47.866;-4.222;2024-01-06T12:39:30;101510.00;;;19.20
44429;BMP180;30134;47.866;-4.222;2024-01-06T12:42:16;101509.00;;;19.30
44429;BMP180;30134;47.866;-4.222;2024-01-06T12:45:03;101504.00;;;19.20
44429;BMP180;30134;47.866;-4.222;2024-01-06T12:47:49;101505.00;;;19.20
44429;BMP180;30134;47.866;-4.222;2024-01-06T12:50:35;101506.00;;;19.30
44429;BMP180;30134;47.866;-4.222;2024-01-06T12:53:21;101507.00;;;19.20
44429;BMP180;30134;47.866;-4.222;2024-01-06T12:56:07;101507.00;;;19.30
44429;BMP180;30134;47.866;-4.222;2024-01-06T12:58:53;101507.00;;;19.30
44429;BMP180;30134;47.866;-4.222;2024-01-06T13:01:42;101500.00;;;19.40
44429;BMP180;30134;47.866;-4.222;2024-01-06T13:04:28;101505.00;;;19.50
44429;BMP180;30134;47.866;-4.222;2024-01-06T13:07:15;101499.00;;;19.50
44429;BMP180;30134;47.866;-4.222;2024-01-06T13:10:01;101500.00;;;19.30
44429;BMP180;30134;47.866;-4.222;2024-01-06T13:12:47;101502.00;;;19.40
44429;BMP180;30134;47.866;-4.222;2024-01-06T13:15:33;101505.00;;;19.40
44429;BMP180;30134;47.866;-4.222;2024-01-06T13:18:19;101511.00;;;19.50
44429;BMP180;30134;47.866;-4.222;2024-01-06T13:21:05;101506.00;;;19.40
44429;BMP180;30134;47.866;-4.222;2024-01-06T13:23:51;101506.00;;;19.40
44429;BMP180;30134;47.866;-4.222;2024-01-06T13:26:38;101506.00;;;19.30
44429;BMP180;30134;47.866;-4.222;2024-01-06T13:29:26;101505.00;;;19.40
44429;BMP180;30134;47.866;-4.222;2024-01-06T13:32:13;101499.00;;;19.40
44429;BMP180;30134;47.866;-4.222;2024-01-06T13:35:00;101499.00;;;19.50
44429;BMP180;30134;47.866;-4.222;2024-01-06T13:37:51;101507.00;;;19.40
44429;BMP180;30134;47.866;-4.222;2024-01-06T13:40:37;101511.00;;;19.40
44429;BMP180;30134;47.866;-4.222;2024-01-06T13:43:23;101509.00;;;19.30
44429;BMP180;30134;47.866;-4.222;2024-01-06T13:46:11;101515.00;;;19.40
44429;BMP180;30134;47.866;-4.222;2024-01-06T13:48:59;101512.00;;;19.40
44429;BMP180;30134;47.866;-4.222;2024-01-06T13:51:45;101512.00;;;19.40
44429;BMP180;30134;47.866;-4.222;2024-01-06T13:54:32;101506.00;;;19.40
44429;BMP180;30134;47.866;-4.222;2024-01-06T13:57:18;101510.00;;;19.40
44429;BMP180;30134;47.866;-4.222;2024-01-06T14:00:04;101510.00;;;19.60
44429;BMP180;30134;47.866;-4.222;2024-01-06T14:02:51;101516.00;;;19.40
44429;BMP180;30134;47.866;-4.222;2024-01-06T14:05:37;101516.00;;;19.50
44429;BMP180;30134;47.866;-4.222;2024-01-06T14:08:23;101530.00;;;19.60
44429;BMP180;30134;47.866;-4.222;2024-01-06T14:11:10;101527.00;;;19.60
44429;BMP180;30134;47.866;-4.222;2024-01-06T14:14:00;101528.00;;;19.70
44429;BMP180;30134;47.866;-4.222;2024-01-06T14:16:46;101536.00;;;19.60
44429;BMP180;30134;47.866;-4.222;2024-01-06T14:19:34;101543.00;;;19.70
44429;BMP180;30134;47.866;-4.222;2024-01-06T14:22:20;101563.00;;;19.70
44429;BMP180;30134;47.866;-4.222;2024-01-06T14:25:07;101581.00;;;19.70
44429;BMP180;30134;47.866;-4.222;2024-01-06T14:27:53;101563.00;;;19.60
44429;BMP180;30134;47.866;-4.222;2024-01-06T14:30:39;101561.00;;;19.60
44429;BMP180;30134;47.866;-4.222;2024-01-06T14:33:25;101566.00;;;19.70
44429;BMP180;30134;47.866;-4.222;2024-01-06T14:36:12;101564.00;;;19.70
44429;BMP180;30134;47.866;-4.222;2024-01-06T14:38:58;101564.00;;;19.70
44429;BMP180;30134;47.866;-4.222;2024-01-06T14:41:45;101574.00;;;19.70
44429;BMP180;30134;47.866;-4.222;2024-01-06T14:44:31;101567.00;;;19.70
44429;BMP180;30134;47.866;-4.222;2024-01-06T14:47:17;101572.00;;;19.70
44429;BMP180;30134;47.866;-4.222;2024-01-06T14:50:04;101573.00;;;19.80